Rural Ridge, Pennsylvania
Current Conditions -  °F | °C
As of 8:35 PM on Saturday 25 Oct 2014 (Local Time) from KBTP Reporting Station
Few Clouds Few Clouds  
Wind Chill: 59°   Ceiling: Unl
Heat Index: 59°   Visibility: 10mi
Dew Point: 50°   Wind: 5mph
Humidity: 72%   Direction: 270°W
Pressure: 29.76"   Gusts: NA
Location:  40.59°N, 79.83°W
Report Text: KBTP 260035Z AUTO 27004KT 10SM FEW060 15/10 A2976 RMK AO1
Loading
Personal Weather Stations






























Interactive Weather Map
Tropical Storm Tracking
New forecast layout! Learn more

10-Day Weather Forecast

Advertisements
Track Severe Weather on mobile